createdAt,value
2022-09-03T00:00:37.689Z,5.32
2022-09-03T00:03:32.017Z,6.47
2022-09-03T00:06:27.077Z,2.22
2022-09-03T00:09:22.237Z,3.03
2022-09-03T00:12:31.893Z,8.63
2022-09-03T00:15:20.864Z,7.10
2022-09-03T00:18:20.705Z,5.18
2022-09-03T00:21:27.649Z,5.00
2022-09-03T00:24:19.048Z,8.10
2022-09-03T00:27:11.561Z,8.70
2022-09-03T00:30:13.753Z,5.22
2022-09-03T00:33:29.852Z,3.05
2022-09-03T00:36:22.805Z,6.50
2022-09-03T00:39:23.190Z,5.82
2022-09-03T00:42:46.181Z,5.18
2022-09-03T00:45:50.947Z,9.40
2022-09-03T00:49:07.613Z,4.90
2022-09-03T00:52:18.924Z,6.80
2022-09-03T00:58:30.143Z,5.78
2022-09-03T01:01:34.533Z,6.32
2022-09-03T01:04:31.851Z,2.75
2022-09-03T01:07:35.113Z,6.97
2022-09-03T01:10:31.824Z,6.28
2022-09-03T01:13:23.828Z,11.90
2022-09-03T01:16:45.142Z,6.28
2022-09-03T01:20:07.004Z,8.60
2022-09-03T01:23:04.776Z,3.60
2022-09-03T01:25:54.758Z,4.55
2022-09-03T01:29:13.168Z,4.35
2022-09-03T01:32:28.617Z,9.35
2022-09-03T01:35:31.021Z,8.93
2022-09-03T01:38:40.967Z,4.90
2022-09-03T01:42:20.679Z,7.53
2022-09-03T01:45:32.291Z,8.73
2022-09-03T01:48:35.025Z,10.70
2022-09-03T01:51:24.187Z,9.38
2022-09-03T01:54:47.503Z,3.05
2022-09-03T01:57:56.184Z,7.93
2022-09-03T02:00:44.081Z,5.80
2022-09-03T02:03:41.238Z,4.32
2022-09-03T02:06:31.855Z,4.63
2022-09-03T02:09:23.392Z,4.30
2022-09-03T02:12:19.000Z,4.80
2022-09-03T02:15:10.765Z,7.90
2022-09-03T02:18:00.140Z,2.85
2022-09-03T02:20:48.016Z,10.80
2022-09-03T02:23:33.567Z,5.35
2022-09-03T02:26:22.981Z,4.97
2022-09-03T02:29:08.787Z,5.25
2022-09-03T02:31:53.927Z,4.95
2022-09-03T02:34:39.459Z,4.57
2022-09-03T02:37:28.069Z,11.35
2022-09-03T02:40:13.465Z,4.80
2022-09-03T02:43:01.415Z,5.75
2022-09-03T02:45:49.256Z,4.10
2022-09-03T02:48:38.379Z,9.90
2022-09-03T02:51:23.605Z,7.40
2022-09-03T02:54:11.120Z,6.38
2022-09-03T02:56:56.708Z,9.25
2022-09-03T02:59:46.123Z,5.60
2022-09-03T03:02:33.364Z,8.82
2022-09-03T03:05:48.741Z,3.78
2022-09-03T03:08:35.144Z,9.10
2022-09-03T03:11:23.097Z,6.85
2022-09-03T03:14:08.974Z,11.00
2022-09-03T03:16:54.430Z,8.55
2022-09-03T03:19:42.747Z,9.10
2022-09-03T03:22:29.012Z,4.40
2022-09-03T03:25:14.345Z,4.53
2022-09-03T03:28:01.256Z,5.03
2022-09-03T03:30:48.862Z,6.15
2022-09-03T03:33:34.784Z,6.00
2022-09-03T03:36:22.945Z,4.40
2022-09-03T03:39:11.187Z,5.78
2022-09-03T03:41:56.572Z,5.18
2022-09-03T03:44:44.064Z,10.07
2022-09-03T03:47:31.108Z,5.22
2022-09-03T03:50:19.703Z,7.43
2022-09-03T03:53:04.967Z,3.63
2022-09-03T03:55:58.864Z,7.38
2022-09-03T03:58:45.181Z,8.57
2022-09-03T04:01:30.464Z,6.03
2022-09-03T04:04:19.284Z,4.60
2022-09-03T04:07:04.858Z,5.65
2022-09-03T04:10:17.755Z,3.92
2022-09-03T04:13:03.172Z,4.30
2022-09-03T04:15:48.565Z,4.80
2022-09-03T04:18:38.047Z,8.77
2022-09-03T04:21:26.607Z,6.10
2022-09-03T04:24:14.375Z,6.43
2022-09-03T04:26:59.654Z,4.70
2022-09-03T04:29:44.744Z,5.28
2022-09-03T04:32:49.241Z,5.05
2022-09-03T04:35:38.307Z,6.00
2022-09-03T04:38:24.258Z,5.50
2022-09-03T04:41:14.761Z,9.38
2022-09-03T04:44:00.433Z,7.70
2022-09-03T04:46:47.791Z,6.18
2022-09-03T04:49:34.587Z,7.05
2022-09-03T04:52:20.611Z,4.93
2022-09-03T04:55:10.944Z,9.63
2022-09-03T04:57:56.102Z,5.70
2022-09-03T05:00:41.735Z,5.65
2022-09-03T05:03:28.586Z,3.95
2022-09-03T05:06:17.305Z,5.35
2022-09-03T05:09:03.283Z,9.85
2022-09-03T05:11:51.220Z,5.80
2022-09-03T05:14:39.559Z,7.45
2022-09-03T05:17:25.275Z,9.23
2022-09-03T05:20:11.110Z,5.85
2022-09-03T05:22:57.514Z,6.60
2022-09-03T05:25:42.874Z,4.43
2022-09-03T05:28:30.323Z,5.03
2022-09-03T05:31:23.979Z,5.00
2022-09-03T05:34:10.638Z,3.55
2022-09-03T05:37:04.399Z,4.63
2022-09-03T05:39:49.828Z,4.47
2022-09-03T05:42:39.052Z,2.80
2022-09-03T05:45:24.776Z,4.53
2022-09-03T05:48:10.113Z,6.00
2022-09-03T05:51:16.784Z,7.72
2022-09-03T05:54:03.879Z,7.22
2022-09-03T05:56:49.731Z,5.30
2022-09-03T05:59:34.906Z,6.18
2022-09-03T06:02:20.337Z,8.48
2022-09-03T06:05:09.002Z,4.75
2022-09-03T06:07:56.539Z,5.53
2022-09-03T06:10:42.129Z,4.65
2022-09-03T06:13:27.908Z,5.05
2022-09-03T06:16:13.661Z,4.82
2022-09-03T06:19:01.054Z,6.93
2022-09-03T06:21:47.145Z,4.55
2022-09-03T06:24:32.831Z,9.85
2022-09-03T06:27:20.481Z,4.85
2022-09-03T06:30:09.932Z,4.90
2022-09-03T06:32:55.376Z,4.88
2022-09-03T06:35:43.165Z,4.85
2022-09-03T06:38:32.004Z,5.05
2022-09-03T06:41:26.264Z,5.00
2022-09-03T06:44:12.453Z,5.32
2022-09-03T06:47:01.639Z,7.15
2022-09-03T06:49:49.383Z,5.95
2022-09-03T06:52:34.519Z,4.82
2022-09-03T06:55:20.155Z,7.53
2022-09-03T06:58:05.461Z,4.88
2022-09-03T07:00:53.153Z,10.32
2022-09-03T07:03:40.101Z,5.47
2022-09-03T07:06:27.569Z,7.90
2022-09-03T07:09:15.036Z,9.27
2022-09-03T07:12:01.400Z,4.65
2022-09-03T07:14:47.456Z,6.72
2022-09-03T07:17:37.060Z,6.60
2022-09-03T07:20:22.734Z,4.55
2022-09-03T07:23:08.499Z,4.03
2022-09-03T07:25:59.886Z,5.72
2022-09-03T07:28:48.986Z,6.45
2022-09-03T07:31:37.258Z,5.72
2022-09-03T07:34:26.766Z,8.30
2022-09-03T07:37:14.966Z,4.28
2022-09-03T07:40:02.956Z,9.13
2022-09-03T07:42:53.250Z,5.18
2022-09-03T07:45:40.643Z,7.10
2022-09-03T07:48:25.869Z,3.58
2022-09-03T07:51:11.475Z,6.90
2022-09-03T07:54:00.450Z,3.88
2022-09-03T07:56:45.955Z,4.85
2022-09-03T07:59:34.601Z,5.32
2022-09-03T08:02:21.968Z,7.38
2022-09-03T08:05:07.847Z,6.32
2022-09-03T08:07:53.466Z,3.88
2022-09-03T08:10:42.459Z,10.18
2022-09-03T08:13:28.275Z,7.75
2022-09-03T08:16:15.657Z,6.88
2022-09-03T08:19:00.911Z,5.63
2022-09-03T08:21:47.352Z,3.50
2022-09-03T08:24:34.421Z,7.10
2022-09-03T08:27:26.103Z,9.60
2022-09-03T08:30:11.897Z,6.78
2022-09-03T08:32:57.684Z,6.95
2022-09-03T08:35:43.205Z,7.53
2022-09-03T08:38:28.384Z,14.70
2022-09-03T08:41:22.547Z,4.60
2022-09-03T08:44:37.824Z,9.00
2022-09-03T08:47:34.812Z,7.00
2022-09-03T08:50:34.310Z,5.95
2022-09-03T08:53:31.639Z,10.30
2022-09-03T08:56:38.874Z,6.65
2022-09-03T08:59:27.063Z,10.30
2022-09-03T09:02:31.937Z,12.43
2022-09-03T09:05:52.267Z,10.45
2022-09-03T09:09:02.932Z,3.72
2022-09-03T09:12:01.051Z,5.63
2022-09-03T09:15:12.696Z,12.15
2022-09-03T09:18:08.102Z,8.45
2022-09-03T09:21:15.658Z,4.93
2022-09-03T09:24:12.094Z,5.07
2022-09-03T09:27:04.319Z,3.53
2022-09-03T09:29:50.683Z,5.30
2022-09-03T09:32:40.688Z,7.30
2022-09-03T09:35:27.079Z,8.38
2022-09-03T09:38:16.446Z,9.13
2022-09-03T09:41:30.036Z,4.72
2022-09-03T09:44:21.650Z,7.70
2022-09-03T09:47:12.955Z,11.07
2022-09-03T09:50:02.706Z,7.70
2022-09-03T09:52:48.268Z,10.38
2022-09-03T09:55:38.952Z,7.82
2022-09-03T09:58:27.850Z,7.82
2022-09-03T10:01:26.271Z,7.63
2022-09-03T10:04:34.395Z,9.90
2022-09-03T10:07:25.874Z,13.38
2022-09-03T10:10:14.942Z,5.28
2022-09-03T10:13:08.498Z,7.15
2022-09-03T10:15:56.840Z,7.40
2022-09-03T10:19:12.849Z,8.90
2022-09-03T10:22:11.224Z,8.20
2022-09-03T10:25:03.280Z,6.28
2022-09-03T10:27:48.839Z,5.30
2022-09-03T10:30:48.443Z,5.35
2022-09-03T10:33:53.830Z,4.30
2022-09-03T10:37:16.903Z,7.45
2022-09-03T10:40:13.297Z,6.90
2022-09-03T10:43:30.044Z,13.00
2022-09-03T10:46:34.230Z,6.25
2022-09-03T10:50:04.842Z,9.23
2022-09-03T10:53:06.961Z,6.70
2022-09-03T10:56:13.045Z,6.93
2022-09-03T10:59:27.235Z,12.88
2022-09-03T11:02:27.184Z,3.15
2022-09-03T11:05:20.692Z,9.35
2022-09-03T11:08:10.291Z,6.35
2022-09-03T11:11:05.378Z,6.55
2022-09-03T11:14:05.968Z,4.13
2022-09-03T11:17:07.770Z,7.68
2022-09-03T11:20:03.060Z,4.30
2022-09-03T11:22:55.851Z,7.10
2022-09-03T11:25:46.974Z,3.97
2022-09-03T11:28:42.224Z,6.43
2022-09-03T11:31:41.842Z,3.90
2022-09-03T11:34:32.249Z,8.10
2022-09-03T11:37:27.493Z,6.70
2022-09-03T11:40:18.256Z,5.07
2022-09-03T11:43:27.372Z,6.97
2022-09-03T11:46:21.890Z,7.72
2022-09-03T11:49:13.617Z,4.75
2022-09-03T11:52:06.500Z,2.10
2022-09-03T11:54:52.095Z,4.88
2022-09-03T11:57:45.517Z,9.60
2022-09-03T12:00:31.300Z,7.07
2022-09-03T12:03:17.912Z,5.05
2022-09-03T12:06:41.641Z,5.85
2022-09-03T12:09:32.648Z,6.15
2022-09-03T12:12:23.894Z,5.97
2022-09-03T12:15:18.517Z,8.75
2022-09-03T12:18:21.680Z,8.18
2022-09-03T12:21:08.998Z,5.47
2022-09-03T12:23:58.277Z,3.72
2022-09-03T12:26:44.654Z,6.63
2022-09-03T12:29:32.140Z,4.47
2022-09-03T12:32:18.601Z,13.32
2022-09-03T12:38:26.056Z,7.18
2022-09-03T12:41:28.866Z,6.30
2022-09-03T12:44:24.509Z,5.25
2022-09-03T12:50:27.165Z,9.68
2022-09-03T12:53:28.055Z,6.38
2022-09-03T12:56:16.838Z,7.25
2022-09-03T12:59:13.929Z,8.35
2022-09-03T13:02:06.744Z,7.60
2022-09-03T13:04:53.026Z,4.90
2022-09-03T13:07:38.932Z,8.57
2022-09-03T13:10:33.612Z,5.47
2022-09-03T13:13:24.978Z,5.85
2022-09-03T13:16:45.429Z,10.48
2022-09-03T13:19:46.983Z,9.70
2022-09-03T13:22:57.588Z,5.50
2022-09-03T13:25:42.882Z,9.27
2022-09-03T13:28:49.457Z,5.93
2022-09-03T13:31:43.252Z,10.27
2022-09-03T13:37:37.794Z,5.90
2022-09-03T13:40:41.295Z,12.68
2022-09-03T13:43:47.668Z,6.53
2022-09-03T13:46:56.083Z,5.57
2022-09-03T13:50:17.227Z,10.18
2022-09-03T13:53:35.770Z,10.20
2022-09-03T13:57:03.834Z,11.55
2022-09-03T14:00:00.048Z,4.72
2022-09-03T14:03:17.601Z,7.00
2022-09-03T14:06:03.136Z,8.38
2022-09-03T14:09:10.745Z,5.28
2022-09-03T14:12:00.806Z,7.50
2022-09-03T14:15:01.934Z,5.70
2022-09-03T14:17:59.935Z,5.30
2022-09-03T14:20:54.719Z,7.88
2022-09-03T14:23:55.071Z,4.78
2022-09-03T14:26:54.652Z,7.10
2022-09-03T14:29:54.315Z,3.53
2022-09-03T14:33:08.176Z,6.45
2022-09-03T14:36:06.866Z,3.45
2022-09-03T14:39:32.607Z,8.02
2022-09-03T14:42:40.747Z,4.68
2022-09-03T14:45:49.091Z,8.55
2022-09-03T14:48:45.816Z,7.57
2022-09-03T14:51:58.364Z,5.13
2022-09-03T14:55:13.754Z,7.45
2022-09-03T14:58:34.639Z,4.80
2022-09-03T15:01:37.644Z,5.97
2022-09-03T15:05:00.128Z,7.50
2022-09-03T15:07:58.794Z,4.63
2022-09-03T15:11:02.032Z,3.95
2022-09-03T15:14:09.038Z,4.18
2022-09-03T15:17:39.816Z,5.90
2022-09-03T15:20:32.956Z,9.10
2022-09-03T15:23:51.795Z,4.32
2022-09-03T15:27:14.608Z,5.70
2022-09-03T15:30:10.222Z,3.42
2022-09-03T15:32:55.404Z,9.80
2022-09-03T15:36:00.023Z,5.18
2022-09-03T15:38:54.398Z,8.15
2022-09-03T15:42:06.590Z,10.70
2022-09-03T15:44:54.917Z,9.00
2022-09-03T15:47:52.017Z,6.40
2022-09-03T15:50:55.763Z,6.45
2022-09-03T15:53:55.758Z,6.55
2022-09-03T15:56:58.773Z,3.95
2022-09-03T16:00:06.177Z,9.95
2022-09-03T16:03:09.443Z,6.03
2022-09-03T16:06:02.873Z,5.53
2022-09-03T16:09:03.544Z,4.22
2022-09-03T16:12:16.830Z,2.88
2022-09-03T16:15:37.488Z,6.90
2022-09-03T16:18:34.860Z,5.45
2022-09-03T16:21:51.406Z,4.78
2022-09-03T16:25:02.979Z,7.80
2022-09-03T16:28:16.975Z,5.00
2022-09-03T16:31:30.502Z,7.80
2022-09-03T16:34:40.629Z,6.75
2022-09-03T16:37:41.899Z,5.25
2022-09-03T16:40:40.254Z,7.03
2022-09-03T16:43:47.807Z,6.25
2022-09-03T16:47:00.179Z,11.40
2022-09-03T16:50:01.810Z,4.43
2022-09-03T16:53:15.067Z,4.35
2022-09-03T16:56:33.827Z,8.88
2022-09-03T16:59:36.688Z,9.63
2022-09-03T17:02:49.900Z,4.30
2022-09-03T17:06:19.899Z,5.25
2022-09-03T17:09:35.615Z,6.63
2022-09-03T17:12:50.215Z,3.17
2022-09-03T17:15:54.551Z,12.75
2022-09-03T17:22:12.715Z,13.65
2022-09-03T17:25:08.032Z,11.07
2022-09-03T17:28:34.212Z,8.93
2022-09-03T17:31:56.056Z,10.00
2022-09-03T17:35:09.648Z,7.43
2022-09-03T17:38:27.785Z,7.03
2022-09-03T17:41:20.435Z,7.28
2022-09-03T17:44:16.848Z,8.75
2022-09-03T17:47:07.330Z,11.98
2022-09-03T17:50:01.188Z,4.25
2022-09-03T17:52:51.427Z,6.95
2022-09-03T17:56:06.471Z,7.40
2022-09-03T17:59:05.912Z,7.20
2022-09-03T18:02:05.528Z,6.97
2022-09-03T18:04:58.374Z,11.38
2022-09-03T18:08:05.099Z,7.43
2022-09-03T18:11:09.450Z,5.95
2022-09-03T18:14:18.275Z,4.82
2022-09-03T18:17:05.176Z,6.10
2022-09-03T18:20:19.012Z,5.55
2022-09-03T18:25:22.474Z,7.80
2022-09-03T18:28:31.230Z,7.82
2022-09-03T18:31:35.749Z,7.20
2022-09-03T18:34:49.805Z,8.95
2022-09-03T18:37:55.074Z,9.60
2022-09-03T18:41:15.191Z,12.13
2022-09-03T18:44:45.875Z,9.73
2022-09-03T18:48:20.191Z,2.72
2022-09-03T18:51:32.662Z,5.55
2022-09-03T18:55:06.718Z,9.45
2022-09-03T18:58:45.637Z,5.05
2022-09-03T19:01:58.269Z,4.47
2022-09-03T19:05:30.915Z,6.90
2022-09-03T19:08:54.167Z,5.82
2022-09-03T19:12:20.801Z,5.72
2022-09-03T19:15:32.686Z,6.40
2022-09-03T19:19:13.953Z,8.65
2022-09-03T19:22:27.256Z,4.53
2022-09-03T19:25:33.556Z,18.83
2022-09-03T19:28:47.529Z,10.65
2022-09-03T19:32:08.304Z,8.85
2022-09-03T19:35:35.633Z,10.15
2022-09-03T19:39:21.386Z,11.27
2022-09-03T19:42:51.649Z,14.77
2022-09-03T19:46:37.762Z,12.82
2022-09-03T19:50:02.141Z,10.40
2022-09-03T19:53:13.831Z,14.60
2022-09-03T19:56:27.472Z,14.25
2022-09-03T19:59:37.510Z,13.38
2022-09-03T20:02:45.404Z,10.90
2022-09-03T20:05:51.695Z,11.10
2022-09-03T20:08:56.076Z,9.23
2022-09-03T20:11:41.913Z,13.75
2022-09-03T20:14:36.594Z,9.85
2022-09-03T20:17:32.811Z,8.93
2022-09-03T20:20:58.652Z,10.60
2022-09-03T20:24:17.728Z,7.13
2022-09-03T20:27:38.048Z,9.80
2022-09-03T20:30:29.983Z,7.65
2022-09-03T20:33:40.216Z,8.60
2022-09-03T20:36:38.422Z,11.25
2022-09-03T20:39:43.704Z,7.40
2022-09-03T20:42:45.616Z,13.77
2022-09-03T20:46:09.599Z,17.85
2022-09-03T20:49:03.593Z,13.13
2022-09-03T20:52:07.603Z,16.33
2022-09-03T20:55:19.224Z,9.38
2022-09-03T20:58:30.514Z,12.48
2022-09-03T21:01:50.878Z,9.55
2022-09-03T21:04:53.897Z,11.48
2022-09-03T21:08:11.173Z,9.55
2022-09-03T21:11:02.071Z,14.10
2022-09-03T21:14:14.764Z,9.30
2022-09-03T21:17:02.821Z,12.18
2022-09-03T21:20:25.984Z,9.15
2022-09-03T21:23:22.087Z,9.77
2022-09-03T21:26:28.023Z,14.13
2022-09-03T21:29:23.908Z,8.25
2022-09-03T21:32:18.447Z,17.63
2022-09-03T21:35:15.032Z,15.77
2022-09-03T21:38:07.810Z,10.75
2022-09-03T21:40:59.774Z,15.07
2022-09-03T21:43:52.730Z,15.00
2022-09-03T21:46:54.976Z,12.75
2022-09-03T21:50:16.516Z,12.82
2022-09-03T21:53:35.661Z,10.57
2022-09-03T21:56:51.043Z,12.65
2022-09-03T21:59:51.265Z,16.15
2022-09-03T22:02:36.544Z,18.17
2022-09-03T22:05:22.253Z,13.43
2022-09-03T22:08:29.929Z,10.85
2022-09-03T22:11:33.770Z,13.60
2022-09-03T22:14:21.254Z,16.17
2022-09-03T22:17:13.047Z,10.00
2022-09-03T22:19:58.655Z,13.15
2022-09-03T22:23:00.318Z,11.10
2022-09-03T22:26:10.732Z,9.88
2022-09-03T22:29:40.326Z,14.45
2022-09-03T22:32:36.457Z,18.05
2022-09-03T22:35:52.843Z,13.77
2022-09-03T22:38:56.802Z,16.50
2022-09-03T22:42:08.382Z,22.15
2022-09-03T22:45:40.491Z,19.13
2022-09-03T22:48:40.139Z,16.52
2022-09-03T22:51:30.511Z,17.20
2022-09-03T22:54:33.891Z,13.38
2022-09-03T22:57:26.129Z,10.90
2022-09-03T23:00:14.725Z,13.15
2022-09-03T23:03:10.614Z,17.30
2022-09-03T23:06:08.636Z,11.60
2022-09-03T23:09:15.665Z,15.13
2022-09-03T23:14:56.607Z,14.18
2022-09-03T23:17:52.349Z,16.52
2022-09-03T23:20:43.408Z,14.10
2022-09-03T23:23:34.433Z,20.00
2022-09-03T23:26:31.635Z,19.90
2022-09-03T23:29:20.720Z,21.38
2022-09-03T23:32:06.448Z,21.40
2022-09-03T23:34:51.719Z,24.88
2022-09-03T23:38:12.074Z,22.00
2022-09-03T23:41:04.100Z,18.17
2022-09-03T23:43:54.328Z,18.92
2022-09-03T23:47:02.110Z,22.88
2022-09-03T23:49:50.664Z,18.30
2022-09-03T23:53:09.220Z,14.68
2022-09-03T23:56:21.133Z,15.88
2022-09-03T23:59:23.039Z,25.83
